createdAt,value
2018-08-12T00:00:02.054Z,1030.41018896
2018-08-12T00:00:14.591Z,1030.41018896
2018-08-12T00:00:27.128Z,1030.41018896
2018-08-12T00:00:39.660Z,1030.41018896
2018-08-12T00:00:52.193Z,1030.41018896
2018-08-12T00:01:04.761Z,1030.47791673
2018-08-12T00:01:17.282Z,1030.47791673
2018-08-12T00:01:29.814Z,1030.47791673
2018-08-12T00:01:42.324Z,1030.47791673
2018-08-12T00:01:54.843Z,1030.47791673
2018-08-12T00:02:07.372Z,1030.41018896
2018-08-12T00:02:19.869Z,1030.41018896
2018-08-12T00:02:32.616Z,1030.41018896
2018-08-12T00:02:45.144Z,1030.41018896
2018-08-12T00:02:57.677Z,1030.41018896
2018-08-12T00:03:10.428Z,1030.41018896
2018-08-12T00:03:22.943Z,1030.41018896
2018-08-12T00:03:35.487Z,1030.41018896
2018-08-12T00:03:47.988Z,1030.41018896
2018-08-12T00:04:00.507Z,1030.41018896
2018-08-12T00:04:13.040Z,1030.41018896
2018-08-12T00:04:25.715Z,1030.41018896
2018-08-12T00:04:38.263Z,1030.41018896
2018-08-12T00:04:50.787Z,1030.41018896
2018-08-12T00:05:03.308Z,1030.51178061
2018-08-12T00:05:15.823Z,1030.51178061
2018-08-12T00:05:28.383Z,1030.51178061
2018-08-12T00:05:40.948Z,1030.51178061
2018-08-12T00:05:53.470Z,1030.51178061
2018-08-12T00:06:05.979Z,1030.3424612
2018-08-12T00:06:18.487Z,1030.3424612
2018-08-12T00:06:31.009Z,1030.3424612
2018-08-12T00:06:43.543Z,1030.3424612
2018-08-12T00:06:56.064Z,1030.3424612
2018-08-12T00:07:08.598Z,1030.44405285
2018-08-12T00:07:21.120Z,1030.44405285
2018-08-12T00:07:33.638Z,1030.44405285
2018-08-12T00:07:46.150Z,1030.44405285
2018-08-12T00:07:58.670Z,1030.44405285
2018-08-12T00:08:11.452Z,1030.47791673
2018-08-12T00:08:23.989Z,1030.47791673
2018-08-12T00:08:36.504Z,1030.47791673
2018-08-12T00:08:49.008Z,1030.47791673
2018-08-12T00:09:01.534Z,1030.47791673
2018-08-12T00:09:14.042Z,1030.47791673
2018-08-12T00:09:26.553Z,1030.47791673
2018-08-12T00:09:39.074Z,1030.47791673
2018-08-12T00:09:51.603Z,1030.47791673
2018-08-12T00:10:04.135Z,1030.41018896
2018-08-12T00:10:16.664Z,1030.41018896
2018-08-12T00:10:29.198Z,1030.41018896
2018-08-12T00:10:41.741Z,1030.41018896
2018-08-12T00:10:54.256Z,1030.41018896
2018-08-12T00:11:06.769Z,1030.47791673
2018-08-12T00:11:19.276Z,1030.47791673
2018-08-12T00:11:31.812Z,1030.47791673
2018-08-12T00:11:44.333Z,1030.47791673
2018-08-12T00:11:56.872Z,1030.47791673
2018-08-12T00:12:09.397Z,1030.47791673
2018-08-12T00:12:21.899Z,1030.47791673
2018-08-12T00:12:34.415Z,1030.47791673
2018-08-12T00:12:46.952Z,1030.47791673
2018-08-12T00:12:59.495Z,1030.37632508
2018-08-12T00:13:12.052Z,1030.37632508
2018-08-12T00:13:24.596Z,1030.37632508
2018-08-12T00:13:37.110Z,1030.37632508
2018-08-12T00:13:49.655Z,1030.37632508
2018-08-12T00:14:02.216Z,1030.37632508
2018-08-12T00:14:14.776Z,1030.37632508
2018-08-12T00:14:27.310Z,1030.37632508
2018-08-12T00:14:39.824Z,1030.37632508
2018-08-12T00:14:52.354Z,1030.37632508
2018-08-12T00:15:05.043Z,1030.41018896
2018-08-12T00:15:18.181Z,1030.41018896
2018-08-12T00:15:31.296Z,1030.41018896
2018-08-12T00:15:43.834Z,1030.41018896
2018-08-12T00:15:56.407Z,1030.41018896
2018-08-12T00:16:08.921Z,1030.47791673
2018-08-12T00:16:21.449Z,1030.47791673
2018-08-12T00:16:33.954Z,1030.47791673
2018-08-12T00:16:46.500Z,1030.47791673
2018-08-12T00:16:59.007Z,1030.47791673
2018-08-12T00:17:11.535Z,1030.41018896
2018-08-12T00:17:24.063Z,1030.41018896
2018-08-12T00:17:36.584Z,1030.41018896
2018-08-12T00:17:49.122Z,1030.41018896
2018-08-12T00:18:01.672Z,1030.41018896
2018-08-12T00:18:14.236Z,1030.41018896
2018-08-12T00:18:26.751Z,1030.41018896
2018-08-12T00:18:39.258Z,1030.41018896
2018-08-12T00:18:51.791Z,1030.41018896
2018-08-12T00:19:04.324Z,1030.41018896
2018-08-12T00:19:16.849Z,1030.41018896
2018-08-12T00:19:29.371Z,1030.41018896
2018-08-12T00:19:41.897Z,1030.41018896
2018-08-12T00:19:54.559Z,1030.41018896
2018-08-12T00:20:07.117Z,1030.44405285
2018-08-12T00:20:19.626Z,1030.44405285
2018-08-12T00:20:32.140Z,1030.44405285
2018-08-12T00:20:44.684Z,1030.44405285
2018-08-12T00:20:57.202Z,1030.44405285
2018-08-12T00:21:09.764Z,1030.41018896
2018-08-12T00:21:22.314Z,1030.41018896
2018-08-12T00:21:34.827Z,1030.41018896
2018-08-12T00:21:47.338Z,1030.41018896
2018-08-12T00:21:59.855Z,1030.44405285
2018-08-12T00:22:12.485Z,1030.44405285
2018-08-12T00:22:25.021Z,1030.44405285
2018-08-12T00:22:37.544Z,1030.44405285
2018-08-12T00:22:50.046Z,1030.44405285
2018-08-12T00:23:02.569Z,1030.41018896
2018-08-12T00:23:15.079Z,1030.41018896
2018-08-12T00:23:27.599Z,1030.41018896
2018-08-12T00:23:40.303Z,1030.41018896
2018-08-12T00:23:52.845Z,1030.41018896
2018-08-12T00:24:05.345Z,1030.47791673
2018-08-12T00:24:17.863Z,1030.47791673
2018-08-12T00:24:30.374Z,1030.47791673
2018-08-12T00:24:42.884Z,1030.47791673
2018-08-12T00:24:55.392Z,1030.47791673
2018-08-12T00:25:08.243Z,1030.41018896
2018-08-12T00:25:20.758Z,1030.41018896
2018-08-12T00:25:33.296Z,1030.41018896
2018-08-12T00:25:45.809Z,1030.41018896
2018-08-12T00:25:58.354Z,1030.41018896
2018-08-12T00:26:11.036Z,1030.44405285
2018-08-12T00:26:23.579Z,1030.44405285
2018-08-12T00:26:36.105Z,1030.44405285
2018-08-12T00:26:48.624Z,1030.44405285
2018-08-12T00:27:01.134Z,1030.3424612
2018-08-12T00:27:13.655Z,1030.3424612
2018-08-12T00:27:26.167Z,1030.3424612
2018-08-12T00:27:38.690Z,1030.3424612
2018-08-12T00:27:51.206Z,1030.3424612
2018-08-12T00:28:03.713Z,1030.41018896
2018-08-12T00:28:16.284Z,1030.41018896
2018-08-12T00:28:28.810Z,1030.41018896
2018-08-12T00:28:41.338Z,1030.41018896
2018-08-12T00:28:53.879Z,1030.41018896
2018-08-12T00:29:06.426Z,1030.44405285
2018-08-12T00:29:19.100Z,1030.44405285
2018-08-12T00:29:31.634Z,1030.44405285
2018-08-12T00:29:44.130Z,1030.44405285
2018-08-12T00:29:56.802Z,1030.44405285
2018-08-12T00:30:09.469Z,1030.37632508
2018-08-12T00:30:22.007Z,1030.37632508
2018-08-12T00:30:34.570Z,1030.37632508
2018-08-12T00:30:47.091Z,1030.37632508
2018-08-12T00:30:59.611Z,1030.41018896
2018-08-12T00:31:12.190Z,1030.41018896
2018-08-12T00:31:24.709Z,1030.41018896
2018-08-12T00:31:37.216Z,1030.41018896
2018-08-12T00:31:49.756Z,1030.41018896
2018-08-12T00:32:02.306Z,1030.41018896
2018-08-12T00:32:14.827Z,1030.41018896
2018-08-12T00:32:27.357Z,1030.41018896
2018-08-12T00:32:39.999Z,1030.41018896
2018-08-12T00:32:52.535Z,1030.41018896
2018-08-12T00:33:05.054Z,1030.41018896
2018-08-12T00:33:17.591Z,1030.41018896
2018-08-12T00:33:30.118Z,1030.41018896
2018-08-12T00:33:42.627Z,1030.41018896
2018-08-12T00:33:55.152Z,1030.41018896
2018-08-12T00:34:07.674Z,1030.44405285
2018-08-12T00:34:20.181Z,1030.44405285
2018-08-12T00:34:32.727Z,1030.44405285
2018-08-12T00:34:45.254Z,1030.44405285
2018-08-12T00:34:57.773Z,1030.44405285
2018-08-12T00:35:10.307Z,1030.44405285
2018-08-12T00:35:22.854Z,1030.44405285
2018-08-12T00:35:35.370Z,1030.44405285
2018-08-12T00:35:47.876Z,1030.44405285
2018-08-12T00:36:00.419Z,1030.47791673
2018-08-12T00:36:12.947Z,1030.47791673
2018-08-12T00:36:25.460Z,1030.47791673
2018-08-12T00:36:38.053Z,1030.47791673
2018-08-12T00:36:50.584Z,1030.47791673
2018-08-12T00:37:03.099Z,1030.41018896
2018-08-12T00:37:15.618Z,1030.41018896
2018-08-12T00:37:28.283Z,1030.41018896
2018-08-12T00:37:40.829Z,1030.41018896
2018-08-12T00:37:53.383Z,1030.41018896
2018-08-12T00:38:05.900Z,1030.41018896
2018-08-12T00:38:18.430Z,1030.41018896
2018-08-12T00:38:30.943Z,1030.41018896
2018-08-12T00:38:43.445Z,1030.41018896
2018-08-12T00:38:56.070Z,1030.41018896
2018-08-12T00:39:08.620Z,1030.47791673
2018-08-12T00:39:21.475Z,1030.47791673
2018-08-12T00:39:34.016Z,1030.47791673
2018-08-12T00:39:46.526Z,1030.47791673
2018-08-12T00:39:59.048Z,1030.47791673
2018-08-12T00:40:11.575Z,1030.41018896
2018-08-12T00:40:24.124Z,1030.41018896
2018-08-12T00:40:36.643Z,1030.41018896
2018-08-12T00:40:49.176Z,1030.41018896
2018-08-12T00:41:01.694Z,1030.44405285
2018-08-12T00:41:14.219Z,1030.44405285
2018-08-12T00:41:26.741Z,1030.44405285
2018-08-12T00:41:39.252Z,1030.44405285
2018-08-12T00:41:51.775Z,1030.44405285
2018-08-12T00:42:04.284Z,1030.44405285
2018-08-12T00:42:16.829Z,1030.44405285
2018-08-12T00:42:29.349Z,1030.44405285
2018-08-12T00:42:41.874Z,1030.44405285
2018-08-12T00:42:54.453Z,1030.44405285
2018-08-12T00:43:07.021Z,1030.44405285
2018-08-12T00:43:19.531Z,1030.44405285
2018-08-12T00:43:32.054Z,1030.44405285
2018-08-12T00:43:44.573Z,1030.44405285
2018-08-12T00:43:57.088Z,1030.44405285
2018-08-12T00:44:09.612Z,1030.37632508
2018-08-12T00:44:22.150Z,1030.37632508
2018-08-12T00:44:34.670Z,1030.37632508
2018-08-12T00:44:47.192Z,1030.37632508
2018-08-12T00:44:59.720Z,1030.44405285
2018-08-12T00:45:12.233Z,1030.44405285
2018-08-12T00:45:24.830Z,1030.44405285
2018-08-12T00:45:37.391Z,1030.44405285
2018-08-12T00:45:49.908Z,1030.44405285
2018-08-12T00:46:02.420Z,1030.41018896
2018-08-12T00:46:14.934Z,1030.41018896
2018-08-12T00:46:27.445Z,1030.41018896
2018-08-12T00:46:39.958Z,1030.41018896
2018-08-12T00:46:52.474Z,1030.41018896
2018-08-12T00:47:04.999Z,1030.44405285
2018-08-12T00:47:17.524Z,1030.44405285
2018-08-12T00:47:30.039Z,1030.44405285
2018-08-12T00:47:42.548Z,1030.44405285
2018-08-12T00:47:55.066Z,1030.44405285
2018-08-12T00:48:07.603Z,1030.47791673
2018-08-12T00:48:20.103Z,1030.47791673
2018-08-12T00:48:32.621Z,1030.47791673
2018-08-12T00:48:45.146Z,1030.47791673
2018-08-12T00:48:57.791Z,1030.47791673
2018-08-12T00:49:10.299Z,1030.44405285
2018-08-12T00:49:22.808Z,1030.44405285
2018-08-12T00:49:35.336Z,1030.44405285
2018-08-12T00:49:47.862Z,1030.44405285
2018-08-12T00:50:00.376Z,1030.3424612
2018-08-12T00:50:12.895Z,1030.3424612
2018-08-12T00:50:25.413Z,1030.3424612
2018-08-12T00:50:37.932Z,1030.3424612
2018-08-12T00:50:50.486Z,1030.3424612
2018-08-12T00:51:03.023Z,1030.44405285
2018-08-12T00:51:15.533Z,1030.44405285
2018-08-12T00:51:28.062Z,1030.44405285
2018-08-12T00:51:40.694Z,1030.44405285
2018-08-12T00:51:53.204Z,1030.44405285
2018-08-12T00:52:05.750Z,1030.30859732
2018-08-12T00:52:18.272Z,1030.30859732
2018-08-12T00:52:30.895Z,1030.30859732
2018-08-12T00:52:43.429Z,1030.30859732
2018-08-12T00:52:55.959Z,1030.30859732
2018-08-12T00:53:08.463Z,1030.47791673
2018-08-12T00:53:20.991Z,1030.47791673
2018-08-12T00:53:33.515Z,1030.47791673
2018-08-12T00:53:46.037Z,1030.47791673
2018-08-12T00:53:58.591Z,1030.47791673
2018-08-12T00:54:11.113Z,1030.37632508
2018-08-12T00:54:23.628Z,1030.37632508
2018-08-12T00:54:36.158Z,1030.37632508
2018-08-12T00:54:48.668Z,1030.37632508
2018-08-12T00:55:01.199Z,1030.3424612
2018-08-12T00:55:13.710Z,1030.3424612
2018-08-12T00:55:26.222Z,1030.3424612
2018-08-12T00:55:38.728Z,1030.3424612
2018-08-12T00:55:51.245Z,1030.3424612
2018-08-12T00:56:03.791Z,1030.44405285
2018-08-12T00:56:16.304Z,1030.44405285
2018-08-12T00:56:28.822Z,1030.44405285
2018-08-12T00:56:41.389Z,1030.44405285
2018-08-12T00:56:53.907Z,1030.44405285
2018-08-12T00:57:06.435Z,1030.30859732
2018-08-12T00:57:19.162Z,1030.30859732
2018-08-12T00:57:31.688Z,1030.30859732
2018-08-12T00:57:44.357Z,1030.30859732
2018-08-12T00:57:56.892Z,1030.30859732
2018-08-12T00:58:09.414Z,1030.44405285
2018-08-12T00:58:21.923Z,1030.44405285
2018-08-12T00:58:34.466Z,1030.44405285
2018-08-12T00:58:47.012Z,1030.44405285
2018-08-12T00:58:59.551Z,1030.37632508
2018-08-12T00:59:12.068Z,1030.37632508
2018-08-12T00:59:24.614Z,1030.37632508
2018-08-12T00:59:37.121Z,1030.37632508
2018-08-12T00:59:49.629Z,1030.37632508
2018-08-12T01:00:02.156Z,1030.37632508
2018-08-12T01:00:14.728Z,1030.37632508
2018-08-12T01:00:27.248Z,1030.37632508
2018-08-12T01:00:39.756Z,1030.37632508
2018-08-12T01:00:52.279Z,1030.37632508
2018-08-12T01:01:04.801Z,1030.41018896
2018-08-12T01:01:17.329Z,1030.41018896
2018-08-12T01:01:29.830Z,1030.41018896
2018-08-12T01:01:42.441Z,1030.41018896
2018-08-12T01:01:54.954Z,1030.41018896
2018-08-12T01:02:07.454Z,1030.37632508
2018-08-12T01:02:19.985Z,1030.37632508
2018-08-12T01:02:32.693Z,1030.37632508
2018-08-12T01:02:45.209Z,1030.37632508
2018-08-12T01:02:57.794Z,1030.37632508
2018-08-12T01:03:10.312Z,1030.44405285
2018-08-12T01:03:22.821Z,1030.44405285
2018-08-12T01:03:35.332Z,1030.44405285
2018-08-12T01:03:47.998Z,1030.44405285
2018-08-12T01:04:00.515Z,1030.41018896
2018-08-12T01:04:13.050Z,1030.41018896
2018-08-12T01:04:25.726Z,1030.41018896
2018-08-12T01:04:38.245Z,1030.41018896
2018-08-12T01:04:50.758Z,1030.41018896
2018-08-12T01:05:03.344Z,1030.3424612
2018-08-12T01:05:15.857Z,1030.3424612
2018-08-12T01:05:28.363Z,1030.3424612
2018-08-12T01:05:40.922Z,1030.3424612
2018-08-12T01:05:53.486Z,1030.3424612
2018-08-12T01:06:05.978Z,1030.37632508
2018-08-12T01:06:18.672Z,1030.37632508
2018-08-12T01:06:31.231Z,1030.37632508
2018-08-12T01:06:43.753Z,1030.37632508
2018-08-12T01:06:56.264Z,1030.37632508
2018-08-12T01:07:08.809Z,1030.44405285
2018-08-12T01:07:21.315Z,1030.44405285
2018-08-12T01:07:33.853Z,1030.44405285
2018-08-12T01:07:46.422Z,1030.44405285
2018-08-12T01:07:58.937Z,1030.44405285
2018-08-12T01:08:11.483Z,1030.37632508
2018-08-12T01:08:24.007Z,1030.37632508
2018-08-12T01:08:36.524Z,1030.37632508
2018-08-12T01:08:49.018Z,1030.37632508
2018-08-12T01:09:01.555Z,1030.41018896
2018-08-12T01:09:14.075Z,1030.41018896
2018-08-12T01:09:26.621Z,1030.41018896
2018-08-12T01:09:39.169Z,1030.41018896
2018-08-12T01:09:51.680Z,1030.41018896
2018-08-12T01:10:04.193Z,1030.37632508
2018-08-12T01:10:16.707Z,1030.37632508
2018-08-12T01:10:29.244Z,1030.37632508
2018-08-12T01:10:41.771Z,1030.37632508
2018-08-12T01:10:54.285Z,1030.37632508
2018-08-12T01:11:06.808Z,1030.41018896
2018-08-12T01:11:19.357Z,1030.41018896
2018-08-12T01:11:31.874Z,1030.41018896
2018-08-12T01:11:44.401Z,1030.41018896
2018-08-12T01:11:56.922Z,1030.41018896
2018-08-12T01:12:09.489Z,1030.44405285
2018-08-12T01:12:22.016Z,1030.44405285
2018-08-12T01:12:34.537Z,1030.44405285
2018-08-12T01:12:47.238Z,1030.44405285
2018-08-12T01:12:59.734Z,1030.44405285
2018-08-12T01:13:12.242Z,1030.44405285
2018-08-12T01:13:24.755Z,1030.44405285
2018-08-12T01:13:37.310Z,1030.44405285
2018-08-12T01:13:49.839Z,1030.44405285
2018-08-12T01:14:02.402Z,1030.44405285
2018-08-12T01:14:14.938Z,1030.44405285
2018-08-12T01:14:27.458Z,1030.44405285
2018-08-12T01:14:39.977Z,1030.44405285
2018-08-12T01:14:52.496Z,1030.44405285
2018-08-12T01:15:05.079Z,1030.41018896
2018-08-12T01:15:17.618Z,1030.41018896
2018-08-12T01:15:30.145Z,1030.41018896
2018-08-12T01:15:42.673Z,1030.41018896
2018-08-12T01:15:55.222Z,1030.41018896
2018-08-12T01:16:07.742Z,1030.41018896
2018-08-12T01:16:20.264Z,1030.41018896
2018-08-12T01:16:32.793Z,1030.41018896
2018-08-12T01:16:45.321Z,1030.41018896
2018-08-12T01:16:57.844Z,1030.41018896
2018-08-12T01:17:10.395Z,1030.37632508
2018-08-12T01:17:22.923Z,1030.37632508
2018-08-12T01:17:35.443Z,1030.37632508
2018-08-12T01:17:47.957Z,1030.37632508
2018-08-12T01:18:00.471Z,1030.41018896
2018-08-12T01:18:12.993Z,1030.41018896
2018-08-12T01:18:25.512Z,1030.41018896
2018-08-12T01:18:38.043Z,1030.41018896
2018-08-12T01:18:50.578Z,1030.41018896
2018-08-12T01:19:03.141Z,1030.3424612
2018-08-12T01:19:15.661Z,1030.3424612
2018-08-12T01:19:28.177Z,1030.3424612
2018-08-12T01:19:40.697Z,1030.3424612
2018-08-12T01:19:53.236Z,1030.3424612
2018-08-12T01:20:05.783Z,1030.3424612
2018-08-12T01:20:18.299Z,1030.3424612
2018-08-12T01:20:30.849Z,1030.3424612
2018-08-12T01:20:43.375Z,1030.3424612
2018-08-12T01:20:55.933Z,1030.3424612
2018-08-12T01:21:08.482Z,1030.41018896
2018-08-12T01:21:21.020Z,1030.41018896
2018-08-12T01:21:33.554Z,1030.41018896
2018-08-12T01:21:46.073Z,1030.41018896
2018-08-12T01:21:58.611Z,1030.41018896
2018-08-12T01:22:11.241Z,1030.3424612
2018-08-12T01:22:23.770Z,1030.3424612
2018-08-12T01:22:36.302Z,1030.3424612
2018-08-12T01:22:48.824Z,1030.3424612
2018-08-12T01:23:01.359Z,1030.3424612
2018-08-12T01:23:13.882Z,1030.3424612
2018-08-12T01:23:26.480Z,1030.3424612
2018-08-12T01:23:39.232Z,1030.3424612
2018-08-12T01:23:51.763Z,1030.3424612
2018-08-12T01:24:04.322Z,1030.37632508
2018-08-12T01:24:16.899Z,1030.37632508
2018-08-12T01:24:29.455Z,1030.37632508
2018-08-12T01:24:41.975Z,1030.37632508
2018-08-12T01:24:54.511Z,1030.37632508
2018-08-12T01:25:07.032Z,1030.47791673
2018-08-12T01:25:19.593Z,1030.47791673
2018-08-12T01:25:32.102Z,1030.47791673
2018-08-12T01:25:44.884Z,1030.47791673
2018-08-12T01:25:57.441Z,1030.47791673
2018-08-12T01:26:09.966Z,1030.37632508
2018-08-12T01:26:22.461Z,1030.37632508
2018-08-12T01:26:34.974Z,1030.37632508
2018-08-12T01:26:47.480Z,1030.37632508
2018-08-12T01:26:59.991Z,1030.3424612
2018-08-12T01:27:12.505Z,1030.3424612
2018-08-12T01:27:25.041Z,1030.3424612
2018-08-12T01:27:37.553Z,1030.3424612
2018-08-12T01:27:50.078Z,1030.3424612
2018-08-12T01:28:02.599Z,1030.3424612
2018-08-12T01:28:15.108Z,1030.3424612
2018-08-12T01:28:27.670Z,1030.3424612
2018-08-12T01:28:40.211Z,1030.3424612
2018-08-12T01:28:52.738Z,1030.3424612
2018-08-12T01:29:05.274Z,1030.30859732
2018-08-12T01:29:17.779Z,1030.30859732
2018-08-12T01:29:30.312Z,1030.30859732
2018-08-12T01:29:42.835Z,1030.30859732
2018-08-12T01:29:55.362Z,1030.30859732
2018-08-12T01:30:07.880Z,1030.3424612
2018-08-12T01:30:20.466Z,1030.3424612
2018-08-12T01:30:33.033Z,1030.3424612
2018-08-12T01:30:45.544Z,1030.3424612
2018-08-12T01:30:58.055Z,1030.3424612
2018-08-12T01:31:10.831Z,1030.30859732
2018-08-12T01:31:23.341Z,1030.30859732
2018-08-12T01:31:35.856Z,1030.30859732
2018-08-12T01:31:48.368Z,1030.30859732
2018-08-12T01:32:00.887Z,1030.27473344
2018-08-12T01:32:13.426Z,1030.27473344
2018-08-12T01:32:25.933Z,1030.27473344
2018-08-12T01:32:38.615Z,1030.27473344
2018-08-12T01:32:51.138Z,1030.27473344
2018-08-12T01:33:03.653Z,1030.3424612
2018-08-12T01:33:16.203Z,1030.3424612
2018-08-12T01:33:28.711Z,1030.3424612
2018-08-12T01:33:41.223Z,1030.3424612
2018-08-12T01:33:53.732Z,1030.3424612
2018-08-12T01:34:06.246Z,1030.20700568
2018-08-12T01:34:18.778Z,1030.20700568
2018-08-12T01:34:31.324Z,1030.20700568
2018-08-12T01:34:43.823Z,1030.20700568
2018-08-12T01:34:56.384Z,1030.20700568
2018-08-12T01:35:08.943Z,1030.30859732
2018-08-12T01:35:21.504Z,1030.30859732
2018-08-12T01:35:34.019Z,1030.30859732
2018-08-12T01:35:46.664Z,1030.30859732
2018-08-12T01:36:00.227Z,1030.20700568
2018-08-12T01:36:13.387Z,1030.20700568
2018-08-12T01:36:25.908Z,1030.20700568
2018-08-12T01:36:38.465Z,1030.20700568
2018-08-12T01:36:50.979Z,1030.20700568
2018-08-12T01:37:03.505Z,1030.27473344
2018-08-12T01:37:16.017Z,1030.27473344
2018-08-12T01:37:28.638Z,1030.27473344
2018-08-12T01:37:41.199Z,1030.27473344
2018-08-12T01:37:53.734Z,1030.27473344
2018-08-12T01:38:06.270Z,1030.24086956
2018-08-12T01:38:18.767Z,1030.24086956
2018-08-12T01:38:31.280Z,1030.24086956
2018-08-12T01:38:43.805Z,1030.24086956
2018-08-12T01:38:56.333Z,1030.24086956
2018-08-12T01:39:08.868Z,1030.27473344
2018-08-12T01:39:21.527Z,1030.27473344
2018-08-12T01:39:34.075Z,1030.27473344
2018-08-12T01:39:46.588Z,1030.27473344
2018-08-12T01:39:59.107Z,1030.27473344
2018-08-12T01:40:11.630Z,1030.20700568
2018-08-12T01:40:24.180Z,1030.20700568
2018-08-12T01:40:36.695Z,1030.20700568
2018-08-12T01:40:49.215Z,1030.20700568
2018-08-12T01:41:01.740Z,1030.27473344
2018-08-12T01:41:14.249Z,1030.27473344
2018-08-12T01:41:26.803Z,1030.27473344
2018-08-12T01:41:39.353Z,1030.27473344
2018-08-12T01:41:51.858Z,1030.27473344
2018-08-12T01:42:04.359Z,1030.24086956
2018-08-12T01:42:16.874Z,1030.24086956
2018-08-12T01:42:29.399Z,1030.24086956
2018-08-12T01:42:41.936Z,1030.24086956
2018-08-12T01:42:54.459Z,1030.24086956
2018-08-12T01:43:06.977Z,1030.20700568
2018-08-12T01:43:19.498Z,1030.20700568
2018-08-12T01:43:32.066Z,1030.20700568
2018-08-12T01:43:44.581Z,1030.20700568
2018-08-12T01:43:57.099Z,1030.20700568
2018-08-12T01:44:09.614Z,1030.27473344
2018-08-12T01:44:22.143Z,1030.27473344
2018-08-12T01:44:34.669Z,1030.27473344
2018-08-12T01:44:47.191Z,1030.27473344
2018-08-12T01:44:59.713Z,1030.24086956
2018-08-12T01:45:12.231Z,1030.24086956
2018-08-12T01:45:24.761Z,1030.24086956
2018-08-12T01:45:37.329Z,1030.24086956
2018-08-12T01:45:49.844Z,1030.24086956
2018-08-12T01:46:02.402Z,1030.24086956
2018-08-12T01:46:14.920Z,1030.24086956
2018-08-12T01:46:27.431Z,1030.24086956
2018-08-12T01:46:39.937Z,1030.24086956
2018-08-12T01:46:52.468Z,1030.24086956
2018-08-12T01:47:04.991Z,1030.17314179
2018-08-12T01:47:17.511Z,1030.17314179
2018-08-12T01:47:30.042Z,1030.17314179
2018-08-12T01:47:42.601Z,1030.17314179
2018-08-12T01:47:55.124Z,1030.17314179
2018-08-12T01:48:07.648Z,1030.17314179
2018-08-12T01:48:20.174Z,1030.17314179
2018-08-12T01:48:32.705Z,1030.17314179
2018-08-12T01:48:45.221Z,1030.17314179
2018-08-12T01:48:57.899Z,1030.17314179
2018-08-12T01:49:10.436Z,1030.24086956
2018-08-12T01:49:23.100Z,1030.24086956
2018-08-12T01:49:35.633Z,1030.24086956
2018-08-12T01:49:48.157Z,1030.24086956
2018-08-12T01:50:00.676Z,1030.20700568
2018-08-12T01:50:13.205Z,1030.20700568
2018-08-12T01:50:25.755Z,1030.20700568
2018-08-12T01:50:38.279Z,1030.20700568
2018-08-12T01:50:50.842Z,1030.20700568
2018-08-12T01:51:03.352Z,1030.24086956
2018-08-12T01:51:15.873Z,1030.24086956
2018-08-12T01:51:28.412Z,1030.24086956
2018-08-12T01:51:41.011Z,1030.24086956
2018-08-12T01:51:53.521Z,1030.24086956
2018-08-12T01:52:06.061Z,1030.17314179
2018-08-12T01:52:18.577Z,1030.17314179
2018-08-12T01:52:31.104Z,1030.17314179
2018-08-12T01:52:43.614Z,1030.17314179
2018-08-12T01:52:56.129Z,1030.17314179
2018-08-12T01:53:08.684Z,1030.20700568
2018-08-12T01:53:21.280Z,1030.20700568
2018-08-12T01:53:33.820Z,1030.20700568
2018-08-12T01:53:46.362Z,1030.20700568
2018-08-12T01:53:58.910Z,1030.20700568
2018-08-12T01:54:11.437Z,1030.27473344
2018-08-12T01:54:23.956Z,1030.27473344
2018-08-12T01:54:36.486Z,1030.27473344
2018-08-12T01:54:48.977Z,1030.27473344
2018-08-12T01:55:01.619Z,1030.17314179
2018-08-12T01:55:14.166Z,1030.17314179
2018-08-12T01:55:26.683Z,1030.17314179
2018-08-12T01:55:39.207Z,1030.17314179
2018-08-12T01:55:51.740Z,1030.17314179
2018-08-12T01:56:04.267Z,1030.17314179
2018-08-12T01:56:16.783Z,1030.17314179
2018-08-12T01:56:29.296Z,1030.17314179
2018-08-12T01:56:41.819Z,1030.17314179
2018-08-12T01:56:54.344Z,1030.17314179
2018-08-12T01:57:06.837Z,1030.17314179
2018-08-12T01:57:19.341Z,1030.17314179
2018-08-12T01:57:31.893Z,1030.17314179
2018-08-12T01:57:44.419Z,1030.17314179
2018-08-12T01:57:56.937Z,1030.17314179
2018-08-12T01:58:09.464Z,1030.20700568
2018-08-12T01:58:21.989Z,1030.20700568
2018-08-12T01:58:34.576Z,1030.20700568
2018-08-12T01:58:47.117Z,1030.20700568
2018-08-12T01:58:59.650Z,1030.13927791
2018-08-12T01:59:12.196Z,1030.13927791
2018-08-12T01:59:24.704Z,1030.13927791
2018-08-12T01:59:37.234Z,1030.13927791
2018-08-12T01:59:49.753Z,1030.13927791
2018-08-12T02:00:02.348Z,1030.24086956
2018-08-12T02:00:14.909Z,1030.24086956
2018-08-12T02:00:27.467Z,1030.24086956
2018-08-12T02:00:40.013Z,1030.24086956
2018-08-12T02:00:52.588Z,1030.24086956
2018-08-12T02:01:05.167Z,1030.13927791
2018-08-12T02:01:17.717Z,1030.13927791
2018-08-12T02:01:30.259Z,1030.13927791
2018-08-12T02:01:42.827Z,1030.13927791
2018-08-12T02:01:55.360Z,1030.13927791
2018-08-12T02:02:07.855Z,1030.10541403
2018-08-12T02:02:20.368Z,1030.10541403
2018-08-12T02:02:33.028Z,1030.10541403
2018-08-12T02:02:45.569Z,1030.10541403
2018-08-12T02:02:58.097Z,1030.10541403
2018-08-12T02:03:10.618Z,1030.20700568
2018-08-12T02:03:23.157Z,1030.20700568
2018-08-12T02:03:35.709Z,1030.20700568
2018-08-12T02:03:48.236Z,1030.20700568
2018-08-12T02:04:00.765Z,1030.20700568
2018-08-12T02:04:13.381Z,1030.20700568
2018-08-12T02:04:25.992Z,1030.20700568
2018-08-12T02:04:38.505Z,1030.20700568
2018-08-12T02:04:51.037Z,1030.20700568
2018-08-12T02:05:03.552Z,1030.10541403
2018-08-12T02:05:16.098Z,1030.10541403
2018-08-12T02:05:28.620Z,1030.10541403
2018-08-12T02:05:41.148Z,1030.10541403
2018-08-12T02:05:53.714Z,1030.10541403
2018-08-12T02:06:06.291Z,1030.17314179
2018-08-12T02:06:18.807Z,1030.17314179
2018-08-12T02:06:31.329Z,1030.17314179
2018-08-12T02:06:43.850Z,1030.17314179
2018-08-12T02:06:56.425Z,1030.17314179
2018-08-12T02:07:08.949Z,1030.17314179
2018-08-12T02:07:21.474Z,1030.17314179
2018-08-12T02:07:34.022Z,1030.17314179
2018-08-12T02:07:46.557Z,1030.17314179
2018-08-12T02:07:59.071Z,1030.17314179
2018-08-12T02:08:11.593Z,1030.17314179
2018-08-12T02:08:24.120Z,1030.17314179
2018-08-12T02:08:36.652Z,1030.17314179